sensor_id;sensor_type;location;lat;lon;timestamp;temperature;humidity
73121;DHT22;61307;49.628;-1.624;2023-08-06T00:00:21;18.60;58.70
73121;DHT22;61307;49.628;-1.624;2023-08-06T00:05:46;18.60;58.50
73121;DHT22;61307;49.628;-1.624;2023-08-06T00:19:13;18.60;58.60
73121;DHT22;61307;49.628;-1.624;2023-08-06T00:21:41;18.60;58.60
73121;DHT22;61307;49.628;-1.624;2023-08-06T00:24:21;18.60;58.50
73121;DHT22;61307;49.628;-1.624;2023-08-06T00:41:12;18.50;58.50
73121;DHT22;61307;49.628;-1.624;2023-08-06T00:43:39;18.40;58.50
73121;DHT22;61307;49.628;-1.624;2023-08-06T00:49:50;18.40;58.40
73121;DHT22;61307;49.628;-1.624;2023-08-06T01:09:43;18.40;58.60
73121;DHT22;61307;49.628;-1.624;2023-08-06T01:12:21;18.40;58.60
73121;DHT22;61307;49.628;-1.624;2023-08-06T01:15:00;18.40;58.60
73121;DHT22;61307;49.628;-1.624;2023-08-06T01:17:29;18.50;58.50
73121;DHT22;61307;49.628;-1.624;2023-08-06T01:23:28;18.50;58.50
73121;DHT22;61307;49.628;-1.624;2023-08-06T01:26:06;18.50;58.40
73121;DHT22;61307;49.628;-1.624;2023-08-06T01:28:43;18.50;58.50
73121;DHT22;61307;49.628;-1.624;2023-08-06T01:37:28;18.50;58.70
73121;DHT22;61307;49.628;-1.624;2023-08-06T01:39:57;18.50;58.80
73121;DHT22;61307;49.628;-1.624;2023-08-06T01:42:24;18.50;58.70
73121;DHT22;61307;49.628;-1.624;2023-08-06T01:44:52;18.50;58.70
73121;DHT22;61307;49.628;-1.624;2023-08-06T01:47:19;18.50;58.80
73121;DHT22;61307;49.628;-1.624;2023-08-06T01:49:47;18.50;58.90
73121;DHT22;61307;49.628;-1.624;2023-08-06T01:52:38;18.50;58.90
73121;DHT22;61307;49.628;-1.624;2023-08-06T01:58:58;18.60;58.90
73121;DHT22;61307;49.628;-1.624;2023-08-06T02:02:11;18.50;58.70
73121;DHT22;61307;49.628;-1.624;2023-08-06T02:04:52;18.50;58.90
73121;DHT22;61307;49.628;-1.624;2023-08-06T02:13:32;18.50;58.90
73121;DHT22;61307;49.628;-1.624;2023-08-06T02:23:39;18.50;58.90
73121;DHT22;61307;49.628;-1.624;2023-08-06T02:26:06;18.60;59.00
73121;DHT22;61307;49.628;-1.624;2023-08-06T02:35:06;18.60;59.00
73121;DHT22;61307;49.628;-1.624;2023-08-06T02:37:34;18.60;59.00
73121;DHT22;61307;49.628;-1.624;2023-08-06T02:40:20;18.60;58.80
73121;DHT22;61307;49.628;-1.624;2023-08-06T02:43:01;18.70;58.90
73121;DHT22;61307;49.628;-1.624;2023-08-06T02:45:29;18.70;58.70
73121;DHT22;61307;49.628;-1.624;2023-08-06T02:47:56;18.70;58.90
73121;DHT22;61307;49.628;-1.624;2023-08-06T02:50:46;18.60;58.70
73121;DHT22;61307;49.628;-1.624;2023-08-06T02:53:26;18.70;58.70
73121;DHT22;61307;49.628;-1.624;2023-08-06T02:55:54;18.60;58.70
73121;DHT22;61307;49.628;-1.624;2023-08-06T03:05:00;18.60;58.60
73121;DHT22;61307;49.628;-1.624;2023-08-06T03:07:29;18.60;58.60
73121;DHT22;61307;49.628;-1.624;2023-08-06T03:09:57;18.60;58.60
73121;DHT22;61307;49.628;-1.624;2023-08-06T03:12:28;18.60;58.50
73121;DHT22;61307;49.628;-1.624;2023-08-06T03:15:19;18.60;58.60
73121;DHT22;61307;49.628;-1.624;2023-08-06T03:21:16;18.60;58.50
73121;DHT22;61307;49.628;-1.624;2023-08-06T03:23:43;18.60;58.60
73121;DHT22;61307;49.628;-1.624;2023-08-06T03:26:53;18.70;58.70
73121;DHT22;61307;49.628;-1.624;2023-08-06T03:29:35;18.60;58.50
73121;DHT22;61307;49.628;-1.624;2023-08-06T03:32:02;18.60;58.60
73121;DHT22;61307;49.628;-1.624;2023-08-06T03:34:30;18.50;58.60
73121;DHT22;61307;49.628;-1.624;2023-08-06T03:36:58;18.60;58.70
73121;DHT22;61307;49.628;-1.624;2023-08-06T03:39:26;18.60;58.80
73121;DHT22;61307;49.628;-1.624;2023-08-06T03:41:53;18.60;58.90
73121;DHT22;61307;49.628;-1.624;2023-08-06T03:44:21;18.60;58.80
73121;DHT22;61307;49.628;-1.624;2023-08-06T03:57:29;18.60;58.70
73121;DHT22;61307;49.628;-1.624;2023-08-06T04:00:07;18.70;58.70
73121;DHT22;61307;49.628;-1.624;2023-08-06T04:02:35;18.70;58.60
73121;DHT22;61307;49.628;-1.624;2023-08-06T04:08:38;18.70;58.60
73121;DHT22;61307;49.628;-1.624;2023-08-06T04:11:20;18.70;58.50
73121;DHT22;61307;49.628;-1.624;2023-08-06T04:20:07;18.70;58.00
73121;DHT22;61307;49.628;-1.624;2023-08-06T04:22:45;18.80;58.00
73121;DHT22;61307;49.628;-1.624;2023-08-06T04:25:12;18.70;58.20
73121;DHT22;61307;49.628;-1.624;2023-08-06T04:27:39;18.70;58.20
73121;DHT22;61307;49.628;-1.624;2023-08-06T04:30:08;18.70;58.20
73121;DHT22;61307;49.628;-1.624;2023-08-06T04:32:39;18.70;58.80
73121;DHT22;61307;49.628;-1.624;2023-08-06T04:37:46;18.80;58.00
73121;DHT22;61307;49.628;-1.624;2023-08-06T04:40:27;18.80;58.00
73121;DHT22;61307;49.628;-1.624;2023-08-06T04:42:54;18.80;57.90
73121;DHT22;61307;49.628;-1.624;2023-08-06T04:49:01;18.80;57.70
73121;DHT22;61307;49.628;-1.624;2023-08-06T04:51:28;18.80;57.70
73121;DHT22;61307;49.628;-1.624;2023-08-06T04:54:20;18.80;57.70
73121;DHT22;61307;49.628;-1.624;2023-08-06T04:57:19;18.80;57.70
73121;DHT22;61307;49.628;-1.624;2023-08-06T05:00:00;18.80;57.60
73121;DHT22;61307;49.628;-1.624;2023-08-06T05:16:06;18.80;57.50
73121;DHT22;61307;49.628;-1.624;2023-08-06T05:18:33;18.80;57.50
73121;DHT22;61307;49.628;-1.624;2023-08-06T05:23:45;18.80;57.40
73121;DHT22;61307;49.628;-1.624;2023-08-06T05:26:47;18.90;57.40
73121;DHT22;61307;49.628;-1.624;2023-08-06T05:32:23;18.70;57.40
73121;DHT22;61307;49.628;-1.624;2023-08-06T05:34:50;18.80;57.50
73121;DHT22;61307;49.628;-1.624;2023-08-06T05:37:48;18.70;57.50
73121;DHT22;61307;49.628;-1.624;2023-08-06T05:40:15;18.70;57.70
73121;DHT22;61307;49.628;-1.624;2023-08-06T05:51:58;18.70;57.70
73121;DHT22;61307;49.628;-1.624;2023-08-06T05:54:34;18.70;57.80
73121;DHT22;61307;49.628;-1.624;2023-08-06T05:57:20;18.60;57.80
73121;DHT22;61307;49.628;-1.624;2023-08-06T05:59:48;18.60;57.90
73121;DHT22;61307;49.628;-1.624;2023-08-06T06:02:15;18.60;57.90
73121;DHT22;61307;49.628;-1.624;2023-08-06T06:11:53;18.70;58.20
73121;DHT22;61307;49.628;-1.624;2023-08-06T06:14:21;18.70;58.20
73121;DHT22;61307;49.628;-1.624;2023-08-06T06:16:48;18.70;58.20
73121;DHT22;61307;49.628;-1.624;2023-08-06T06:19:26;18.70;58.20
73121;DHT22;61307;49.628;-1.624;2023-08-06T06:25:25;18.70;58.30
73121;DHT22;61307;49.628;-1.624;2023-08-06T06:27:53;18.70;58.20
73121;DHT22;61307;49.628;-1.624;2023-08-06T06:30:22;18.70;58.40
73121;DHT22;61307;49.628;-1.624;2023-08-06T06:33:24;18.70;58.40
73121;DHT22;61307;49.628;-1.624;2023-08-06T06:36:07;18.70;58.50
73121;DHT22;61307;49.628;-1.624;2023-08-06T06:38:51;18.70;58.50
73121;DHT22;61307;49.628;-1.624;2023-08-06T06:41:49;18.70;58.50
73121;DHT22;61307;49.628;-1.624;2023-08-06T06:44:16;18.70;58.50
73121;DHT22;61307;49.628;-1.624;2023-08-06T06:46:49;18.70;58.50
73121;DHT22;61307;49.628;-1.624;2023-08-06T06:49:17;18.80;58.70
73121;DHT22;61307;49.628;-1.624;2023-08-06T06:51:55;18.80;59.30
73121;DHT22;61307;49.628;-1.624;2023-08-06T06:54:23;18.80;58.70
73121;DHT22;61307;49.628;-1.624;2023-08-06T06:56:52;18.80;58.70
73121;DHT22;61307;49.628;-1.624;2023-08-06T06:59:34;18.70;58.60
73121;DHT22;61307;49.628;-1.624;2023-08-06T07:06:03;18.70;58.70
73121;DHT22;61307;49.628;-1.624;2023-08-06T07:08:52;18.70;58.80
73121;DHT22;61307;49.628;-1.624;2023-08-06T07:11:41;18.60;58.80
73121;DHT22;61307;49.628;-1.624;2023-08-06T07:20:48;18.60;58.80
73121;DHT22;61307;49.628;-1.624;2023-08-06T07:23:15;18.70;59.00
73121;DHT22;61307;49.628;-1.624;2023-08-06T07:29:05;18.60;58.70
73121;DHT22;61307;49.628;-1.624;2023-08-06T07:41:53;18.70;58.80
73121;DHT22;61307;49.628;-1.624;2023-08-06T07:44:43;18.70;58.90
73121;DHT22;61307;49.628;-1.624;2023-08-06T07:47:10;18.70;59.00
73121;DHT22;61307;49.628;-1.624;2023-08-06T07:49:38;18.70;59.00
73121;DHT22;61307;49.628;-1.624;2023-08-06T08:01:41;18.80;59.00
73121;DHT22;61307;49.628;-1.624;2023-08-06T08:04:09;18.70;58.90
73121;DHT22;61307;49.628;-1.624;2023-08-06T08:10:02;18.70;59.10
73121;DHT22;61307;49.628;-1.624;2023-08-06T08:12:39;18.70;59.00
73121;DHT22;61307;49.628;-1.624;2023-08-06T08:15:17;18.70;59.10
73121;DHT22;61307;49.628;-1.624;2023-08-06T08:17:56;18.70;59.10
73121;DHT22;61307;49.628;-1.624;2023-08-06T08:20:24;18.70;59.10
73121;DHT22;61307;49.628;-1.624;2023-08-06T08:25:30;18.70;59.00
73121;DHT22;61307;49.628;-1.624;2023-08-06T08:28:00;18.80;59.20
73121;DHT22;61307;49.628;-1.624;2023-08-06T08:30:27;18.80;59.10
73121;DHT22;61307;49.628;-1.624;2023-08-06T08:32:56;18.80;59.00
73121;DHT22;61307;49.628;-1.624;2023-08-06T08:35:53;18.80;59.00
73121;DHT22;61307;49.628;-1.624;2023-08-06T08:41:52;18.80;58.80
73121;DHT22;61307;49.628;-1.624;2023-08-06T08:51:14;18.80;58.90
73121;DHT22;61307;49.628;-1.624;2023-08-06T08:56:49;18.70;58.90
73121;DHT22;61307;49.628;-1.624;2023-08-06T08:59:16;18.70;58.70
73121;DHT22;61307;49.628;-1.624;2023-08-06T09:01:58;18.70;58.80
73121;DHT22;61307;49.628;-1.624;2023-08-06T09:04:41;18.70;58.90
73121;DHT22;61307;49.628;-1.624;2023-08-06T09:07:26;18.80;59.00
73121;DHT22;61307;49.628;-1.624;2023-08-06T09:10:22;18.80;58.90
73121;DHT22;61307;49.628;-1.624;2023-08-06T09:16:21;18.80;59.00
73121;DHT22;61307;49.628;-1.624;2023-08-06T09:26:00;18.80;58.70
73121;DHT22;61307;49.628;-1.624;2023-08-06T09:38:39;18.80;59.20
73121;DHT22;61307;49.628;-1.624;2023-08-06T09:48:04;18.80;59.00
73121;DHT22;61307;49.628;-1.624;2023-08-06T09:50:33;18.80;59.20
73121;DHT22;61307;49.628;-1.624;2023-08-06T09:53:02;18.70;58.80
73121;DHT22;61307;49.628;-1.624;2023-08-06T09:55:44;18.70;59.10
73121;DHT22;61307;49.628;-1.624;2023-08-06T09:58:23;18.70;59.10
73121;DHT22;61307;49.628;-1.624;2023-08-06T10:07:19;18.70;59.10
73121;DHT22;61307;49.628;-1.624;2023-08-06T10:13:21;18.70;59.10
73121;DHT22;61307;49.628;-1.624;2023-08-06T10:16:36;18.70;59.20
73121;DHT22;61307;49.628;-1.624;2023-08-06T10:19:20;18.70;59.10
73121;DHT22;61307;49.628;-1.624;2023-08-06T10:38:26;18.70;58.90
73121;DHT22;61307;49.628;-1.624;2023-08-06T10:41:02;18.70;58.90
73121;DHT22;61307;49.628;-1.624;2023-08-06T10:43:31;18.80;59.10
73121;DHT22;61307;49.628;-1.624;2023-08-06T10:49:23;18.70;59.00
73121;DHT22;61307;49.628;-1.624;2023-08-06T10:51:52;18.70;59.10
73121;DHT22;61307;49.628;-1.624;2023-08-06T10:54:20;18.70;59.00
73121;DHT22;61307;49.628;-1.624;2023-08-06T10:56:47;18.80;59.00
73121;DHT22;61307;49.628;-1.624;2023-08-06T10:59:15;18.80;59.20
73121;DHT22;61307;49.628;-1.624;2023-08-06T11:02:16;18.80;59.10
73121;DHT22;61307;49.628;-1.624;2023-08-06T11:05:09;18.80;59.00
73121;DHT22;61307;49.628;-1.624;2023-08-06T11:07:38;18.80;58.90
73121;DHT22;61307;49.628;-1.624;2023-08-06T11:10:16;18.80;58.70
73121;DHT22;61307;49.628;-1.624;2023-08-06T11:13:00;18.80;59.30
73121;DHT22;61307;49.628;-1.624;2023-08-06T11:15:29;18.80;58.90
73121;DHT22;61307;49.628;-1.624;2023-08-06T11:18:28;18.80;59.00
73121;DHT22;61307;49.628;-1.624;2023-08-06T11:24:39;18.80;58.60
73121;DHT22;61307;49.628;-1.624;2023-08-06T11:27:14;18.80;59.30
73121;DHT22;61307;49.628;-1.624;2023-08-06T11:33:51;18.80;59.00
73121;DHT22;61307;49.628;-1.624;2023-08-06T11:36:08;18.80;58.90
73121;DHT22;61307;49.628;-1.624;2023-08-06T11:38:39;18.80;58.60
73121;DHT22;61307;49.628;-1.624;2023-08-06T11:51:12;18.80;58.20
73121;DHT22;61307;49.628;-1.624;2023-08-06T11:53:41;18.80;58.00
73121;DHT22;61307;49.628;-1.624;2023-08-06T11:56:09;18.80;58.20
73121;DHT22;61307;49.628;-1.624;2023-08-06T11:58:36;18.80;58.20
73121;DHT22;61307;49.628;-1.624;2023-08-06T12:10:25;18.80;58.30
73121;DHT22;61307;49.628;-1.624;2023-08-06T12:16:55;18.80;58.40
73121;DHT22;61307;49.628;-1.624;2023-08-06T12:23:00;18.80;58.30
73121;DHT22;61307;49.628;-1.624;2023-08-06T12:25:29;18.80;58.30
73121;DHT22;61307;49.628;-1.624;2023-08-06T12:28:15;18.80;58.50
73121;DHT22;61307;49.628;-1.624;2023-08-06T12:30:47;18.80;58.50
73121;DHT22;61307;49.628;-1.624;2023-08-06T12:33:17;18.90;58.80
73121;DHT22;61307;49.628;-1.624;2023-08-06T12:35:45;18.80;58.50
73121;DHT22;61307;49.628;-1.624;2023-08-06T12:44:48;18.90;57.80
73121;DHT22;61307;49.628;-1.624;2023-08-06T12:47:16;18.80;58.00
73121;DHT22;61307;49.628;-1.624;2023-08-06T12:49:43;18.80;57.90
73121;DHT22;61307;49.628;-1.624;2023-08-06T12:52:10;18.80;58.00
73121;DHT22;61307;49.628;-1.624;2023-08-06T12:57:58;18.80;58.10
73121;DHT22;61307;49.628;-1.624;2023-08-06T13:00:26;18.80;58.10
73121;DHT22;61307;49.628;-1.624;2023-08-06T13:03:00;18.80;57.90
73121;DHT22;61307;49.628;-1.624;2023-08-06T13:05:41;18.90;58.10
73121;DHT22;61307;49.628;-1.624;2023-08-06T13:08:08;18.90;58.00
73121;DHT22;61307;49.628;-1.624;2023-08-06T13:10:41;18.80;57.40
73121;DHT22;61307;49.628;-1.624;2023-08-06T13:13:18;18.90;57.40
73121;DHT22;61307;49.628;-1.624;2023-08-06T13:15:46;18.90;57.40
73121;DHT22;61307;49.628;-1.624;2023-08-06T13:22:06;18.80;57.10
73121;DHT22;61307;49.628;-1.624;2023-08-06T13:30:52;18.90;57.10
73121;DHT22;61307;49.628;-1.624;2023-08-06T13:40:08;18.80;56.90
73121;DHT22;61307;49.628;-1.624;2023-08-06T13:49:28;18.90;56.60
73121;DHT22;61307;49.628;-1.624;2023-08-06T13:51:55;18.90;56.80
73121;DHT22;61307;49.628;-1.624;2023-08-06T13:54:41;18.90;56.90
73121;DHT22;61307;49.628;-1.624;2023-08-06T13:57:08;18.90;56.80
73121;DHT22;61307;49.628;-1.624;2023-08-06T13:59:36;18.90;57.10
73121;DHT22;61307;49.628;-1.624;2023-08-06T14:06:12;18.90;56.50
73121;DHT22;61307;49.628;-1.624;2023-08-06T14:08:39;19.00;56.30
73121;DHT22;61307;49.628;-1.624;2023-08-06T14:11:06;19.00;56.30
73121;DHT22;61307;49.628;-1.624;2023-08-06T14:14:17;18.90;56.50
73121;DHT22;61307;49.628;-1.624;2023-08-06T14:17:25;19.00;56.60
73121;DHT22;61307;49.628;-1.624;2023-08-06T14:23:03;19.00;56.60
73121;DHT22;61307;49.628;-1.624;2023-08-06T14:25:45;19.00;56.60
73121;DHT22;61307;49.628;-1.624;2023-08-06T14:28:12;19.00;56.50
73121;DHT22;61307;49.628;-1.624;2023-08-06T14:37:49;19.10;56.30
73121;DHT22;61307;49.628;-1.624;2023-08-06T14:40:18;19.10;56.80
73121;DHT22;61307;49.628;-1.624;2023-08-06T14:42:59;19.10;56.80
73121;DHT22;61307;49.628;-1.624;2023-08-06T14:45:46;19.10;56.60
73121;DHT22;61307;49.628;-1.624;2023-08-06T14:51:53;19.10;56.80
73121;DHT22;61307;49.628;-1.624;2023-08-06T14:54:24;19.20;57.20
73121;DHT22;61307;49.628;-1.624;2023-08-06T14:56:53;19.10;57.30
73121;DHT22;61307;49.628;-1.624;2023-08-06T14:59:27;19.20;57.40
73121;DHT22;61307;49.628;-1.624;2023-08-06T15:01:54;19.10;57.40
73121;DHT22;61307;49.628;-1.624;2023-08-06T15:04:21;19.20;57.50
73121;DHT22;61307;49.628;-1.624;2023-08-06T15:06:50;19.10;57.40
73121;DHT22;61307;49.628;-1.624;2023-08-06T15:09:18;19.20;57.50
73121;DHT22;61307;49.628;-1.624;2023-08-06T15:11:53;19.20;57.50
73121;DHT22;61307;49.628;-1.624;2023-08-06T15:14:22;19.20;57.40
73121;DHT22;61307;49.628;-1.624;2023-08-06T15:16:50;19.20;57.40
73121;DHT22;61307;49.628;-1.624;2023-08-06T15:19:18;19.20;57.30
73121;DHT22;61307;49.628;-1.624;2023-08-06T15:21:46;19.20;57.30
73121;DHT22;61307;49.628;-1.624;2023-08-06T15:24:15;19.30;57.30
73121;DHT22;61307;49.628;-1.624;2023-08-06T15:26:42;19.30;58.00
73121;DHT22;61307;49.628;-1.624;2023-08-06T15:29:26;19.30;57.30
73121;DHT22;61307;49.628;-1.624;2023-08-06T15:31:53;19.30;57.30
73121;DHT22;61307;49.628;-1.624;2023-08-06T15:34:27;19.30;57.20
73121;DHT22;61307;49.628;-1.624;2023-08-06T15:40:29;19.30;57.10
73121;DHT22;61307;49.628;-1.624;2023-08-06T15:43:13;19.30;57.20
73121;DHT22;61307;49.628;-1.624;2023-08-06T15:45:55;19.40;57.20
73121;DHT22;61307;49.628;-1.624;2023-08-06T15:54:19;19.50;56.80
73121;DHT22;61307;49.628;-1.624;2023-08-06T15:59:34;19.40;56.80
73121;DHT22;61307;49.628;-1.624;2023-08-06T16:09:04;19.50;57.00
73121;DHT22;61307;49.628;-1.624;2023-08-06T16:11:43;19.40;57.10
73121;DHT22;61307;49.628;-1.624;2023-08-06T16:14:35;19.50;57.30
73121;DHT22;61307;49.628;-1.624;2023-08-06T16:17:15;19.50;57.30
73121;DHT22;61307;49.628;-1.624;2023-08-06T16:19:43;19.50;57.30
73121;DHT22;61307;49.628;-1.624;2023-08-06T16:22:11;19.50;57.30
73121;DHT22;61307;49.628;-1.624;2023-08-06T16:24:51;19.50;57.30
73121;DHT22;61307;49.628;-1.624;2023-08-06T16:27:19;19.50;57.40
73121;DHT22;61307;49.628;-1.624;2023-08-06T16:29:46;19.60;57.60
73121;DHT22;61307;49.628;-1.624;2023-08-06T16:32:53;19.60;57.60
73121;DHT22;61307;49.628;-1.624;2023-08-06T16:35:22;19.60;57.60
73121;DHT22;61307;49.628;-1.624;2023-08-06T16:44:53;19.60;57.80
73121;DHT22;61307;49.628;-1.624;2023-08-06T16:47:20;19.60;57.70
73121;DHT22;61307;49.628;-1.624;2023-08-06T16:49:48;19.60;57.70
73121;DHT22;61307;49.628;-1.624;2023-08-06T16:52:15;19.60;57.90
73121;DHT22;61307;49.628;-1.624;2023-08-06T16:54:43;19.60;57.90
73121;DHT22;61307;49.628;-1.624;2023-08-06T17:00:57;19.60;58.00
73121;DHT22;61307;49.628;-1.624;2023-08-06T17:03:36;19.60;57.90
73121;DHT22;61307;49.628;-1.624;2023-08-06T17:06:09;19.60;57.90
73121;DHT22;61307;49.628;-1.624;2023-08-06T17:22:40;19.70;58.20
73121;DHT22;61307;49.628;-1.624;2023-08-06T17:25:08;19.70;58.20
73121;DHT22;61307;49.628;-1.624;2023-08-06T17:27:46;19.80;58.20
73121;DHT22;61307;49.628;-1.624;2023-08-06T17:30:15;19.80;58.20
73121;DHT22;61307;49.628;-1.624;2023-08-06T17:32:42;19.80;58.20
73121;DHT22;61307;49.628;-1.624;2023-08-06T17:37:59;19.80;58.20
73121;DHT22;61307;49.628;-1.624;2023-08-06T17:43:50;19.90;58.30
73121;DHT22;61307;49.628;-1.624;2023-08-06T17:46:24;19.90;58.40
73121;DHT22;61307;49.628;-1.624;2023-08-06T17:48:51;19.80;58.30
73121;DHT22;61307;49.628;-1.624;2023-08-06T17:51:21;19.90;58.40
73121;DHT22;61307;49.628;-1.624;2023-08-06T17:53:50;20.00;58.50
73121;DHT22;61307;49.628;-1.624;2023-08-06T17:59:26;20.00;58.60
73121;DHT22;61307;49.628;-1.624;2023-08-06T18:01:54;20.00;58.60
73121;DHT22;61307;49.628;-1.624;2023-08-06T18:04:21;20.00;58.70
73121;DHT22;61307;49.628;-1.624;2023-08-06T18:10:20;20.00;58.90
73121;DHT22;61307;49.628;-1.624;2023-08-06T18:12:48;20.00;58.90
73121;DHT22;61307;49.628;-1.624;2023-08-06T18:15:38;20.00;58.90
73121;DHT22;61307;49.628;-1.624;2023-08-06T18:18:23;20.00;58.90
73121;DHT22;61307;49.628;-1.624;2023-08-06T18:20:51;20.00;59.00
73121;DHT22;61307;49.628;-1.624;2023-08-06T18:23:18;20.00;58.90
73121;DHT22;61307;49.628;-1.624;2023-08-06T18:25:47;20.00;58.90
73121;DHT22;61307;49.628;-1.624;2023-08-06T18:28:25;20.00;59.00
73121;DHT22;61307;49.628;-1.624;2023-08-06T18:31:06;20.00;59.00
73121;DHT22;61307;49.628;-1.624;2023-08-06T18:33:34;20.00;59.00
73121;DHT22;61307;49.628;-1.624;2023-08-06T18:36:01;20.00;59.10
73121;DHT22;61307;49.628;-1.624;2023-08-06T18:39:21;20.00;59.10
73121;DHT22;61307;49.628;-1.624;2023-08-06T18:42:02;20.00;59.10
73121;DHT22;61307;49.628;-1.624;2023-08-06T18:45:10;20.00;59.10
73121;DHT22;61307;49.628;-1.624;2023-08-06T18:47:38;20.00;59.30
73121;DHT22;61307;49.628;-1.624;2023-08-06T18:50:06;20.00;59.30
73121;DHT22;61307;49.628;-1.624;2023-08-06T18:52:33;20.00;59.30
73121;DHT22;61307;49.628;-1.624;2023-08-06T18:55:01;20.00;59.30
73121;DHT22;61307;49.628;-1.624;2023-08-06T19:07:40;20.00;59.60
73121;DHT22;61307;49.628;-1.624;2023-08-06T19:10:08;19.90;59.60
73121;DHT22;61307;49.628;-1.624;2023-08-06T19:12:49;19.90;59.70
73121;DHT22;61307;49.628;-1.624;2023-08-06T19:15:16;19.90;59.80
73121;DHT22;61307;49.628;-1.624;2023-08-06T19:18:04;19.90;59.80
73121;DHT22;61307;49.628;-1.624;2023-08-06T19:20:41;19.90;60.10
73121;DHT22;61307;49.628;-1.624;2023-08-06T19:23:11;19.80;60.00
73121;DHT22;61307;49.628;-1.624;2023-08-06T19:26:08;19.80;60.00
73121;DHT22;61307;49.628;-1.624;2023-08-06T19:28:38;19.70;60.00
73121;DHT22;61307;49.628;-1.624;2023-08-06T19:31:06;19.70;60.00
73121;DHT22;61307;49.628;-1.624;2023-08-06T19:33:33;19.70;60.00
73121;DHT22;61307;49.628;-1.624;2023-08-06T19:42:13;19.60;60.60
73121;DHT22;61307;49.628;-1.624;2023-08-06T19:44:40;19.60;60.90
73121;DHT22;61307;49.628;-1.624;2023-08-06T19:47:08;19.50;60.90
73121;DHT22;61307;49.628;-1.624;2023-08-06T19:49:35;19.50;60.80
73121;DHT22;61307;49.628;-1.624;2023-08-06T19:52:02;19.50;61.00
73121;DHT22;61307;49.628;-1.624;2023-08-06T19:54:31;19.50;60.90
73121;DHT22;61307;49.628;-1.624;2023-08-06T19:57:12;19.50;60.90
73121;DHT22;61307;49.628;-1.624;2023-08-06T19:59:54;19.50;61.90
73121;DHT22;61307;49.628;-1.624;2023-08-06T20:02:35;19.40;61.10
73121;DHT22;61307;49.628;-1.624;2023-08-06T20:05:24;19.40;61.10
73121;DHT22;61307;49.628;-1.624;2023-08-06T20:08:07;19.40;61.30
73121;DHT22;61307;49.628;-1.624;2023-08-06T20:10:35;19.40;61.30
73121;DHT22;61307;49.628;-1.624;2023-08-06T20:13:03;19.40;61.40
73121;DHT22;61307;49.628;-1.624;2023-08-06T20:18:40;19.40;61.50
73121;DHT22;61307;49.628;-1.624;2023-08-06T20:24:22;19.30;61.30
73121;DHT22;61307;49.628;-1.624;2023-08-06T20:26:51;19.30;61.20
73121;DHT22;61307;49.628;-1.624;2023-08-06T20:32:51;19.30;61.40
73121;DHT22;61307;49.628;-1.624;2023-08-06T20:35:37;19.30;61.20
73121;DHT22;61307;49.628;-1.624;2023-08-06T20:38:05;19.30;61.30
73121;DHT22;61307;49.628;-1.624;2023-08-06T20:40:32;19.30;61.10
73121;DHT22;61307;49.628;-1.624;2023-08-06T20:43:00;19.30;61.10
73121;DHT22;61307;49.628;-1.624;2023-08-06T20:45:33;19.30;61.10
73121;DHT22;61307;49.628;-1.624;2023-08-06T20:54:43;19.30;61.10
73121;DHT22;61307;49.628;-1.624;2023-08-06T20:57:54;19.20;61.00
73121;DHT22;61307;49.628;-1.624;2023-08-06T21:00:26;19.20;61.00
73121;DHT22;61307;49.628;-1.624;2023-08-06T21:02:53;19.30;61.10
73121;DHT22;61307;49.628;-1.624;2023-08-06T21:05:20;19.30;61.10
73121;DHT22;61307;49.628;-1.624;2023-08-06T21:11:25;19.30;61.00
73121;DHT22;61307;49.628;-1.624;2023-08-06T21:14:09;19.30;60.90
73121;DHT22;61307;49.628;-1.624;2023-08-06T21:30:30;19.30;60.70
73121;DHT22;61307;49.628;-1.624;2023-08-06T21:36:31;19.30;60.50
73121;DHT22;61307;49.628;-1.624;2023-08-06T21:38:59;19.30;60.50
73121;DHT22;61307;49.628;-1.624;2023-08-06T21:41:27;19.30;60.30
73121;DHT22;61307;49.628;-1.624;2023-08-06T21:43:54;19.30;60.20
73121;DHT22;61307;49.628;-1.624;2023-08-06T21:56:35;19.20;59.70
73121;DHT22;61307;49.628;-1.624;2023-08-06T22:02:38;19.20;59.70
73121;DHT22;61307;49.628;-1.624;2023-08-06T22:11:52;19.20;59.70
73121;DHT22;61307;49.628;-1.624;2023-08-06T22:14:19;19.20;59.70
73121;DHT22;61307;49.628;-1.624;2023-08-06T22:16:48;19.20;59.70
73121;DHT22;61307;49.628;-1.624;2023-08-06T22:19:25;19.20;59.60
73121;DHT22;61307;49.628;-1.624;2023-08-06T22:21:56;19.20;59.70
73121;DHT22;61307;49.628;-1.624;2023-08-06T22:24:27;19.20;59.60
73121;DHT22;61307;49.628;-1.624;2023-08-06T22:27:09;19.20;59.60
73121;DHT22;61307;49.628;-1.624;2023-08-06T22:29:37;19.20;59.60
73121;DHT22;61307;49.628;-1.624;2023-08-06T22:32:04;19.20;59.60
73121;DHT22;61307;49.628;-1.624;2023-08-06T22:34:32;19.20;59.50
73121;DHT22;61307;49.628;-1.624;2023-08-06T22:37:00;19.20;59.50
73121;DHT22;61307;49.628;-1.624;2023-08-06T22:39:27;19.20;59.50
73121;DHT22;61307;49.628;-1.624;2023-08-06T22:41:54;19.20;59.50
73121;DHT22;61307;49.628;-1.624;2023-08-06T22:44:23;19.20;59.50
73121;DHT22;61307;49.628;-1.624;2023-08-06T22:50:19;19.20;59.50
73121;DHT22;61307;49.628;-1.624;2023-08-06T22:52:46;19.20;59.50
73121;DHT22;61307;49.628;-1.624;2023-08-06T22:55:14;19.20;59.60
73121;DHT22;61307;49.628;-1.624;2023-08-06T22:57:55;19.20;59.60
73121;DHT22;61307;49.628;-1.624;2023-08-06T23:03:07;19.20;59.60
73121;DHT22;61307;49.628;-1.624;2023-08-06T23:09:06;19.20;59.70
73121;DHT22;61307;49.628;-1.624;2023-08-06T23:11:47;19.10;59.60
73121;DHT22;61307;49.628;-1.624;2023-08-06T23:14:14;19.10;59.70
73121;DHT22;61307;49.628;-1.624;2023-08-06T23:17:15;19.10;59.80
73121;DHT22;61307;49.628;-1.624;2023-08-06T23:19:43;19.10;59.90
73121;DHT22;61307;49.628;-1.624;2023-08-06T23:22:27;19.10;60.00
73121;DHT22;61307;49.628;-1.624;2023-08-06T23:24:54;19.10;60.00
73121;DHT22;61307;49.628;-1.624;2023-08-06T23:27:21;19.10;60.00
73121;DHT22;61307;49.628;-1.624;2023-08-06T23:29:49;19.10;60.00
73121;DHT22;61307;49.628;-1.624;2023-08-06T23:39:13;19.10;60.30
73121;DHT22;61307;49.628;-1.624;2023-08-06T23:45:02;19.10;60.50
73121;DHT22;61307;49.628;-1.624;2023-08-06T23:47:40;19.10;60.40
73121;DHT22;61307;49.628;-1.624;2023-08-06T23:53:52;19.10;60.50
73121;DHT22;61307;49.628;-1.624;2023-08-06T23:56:00;19.10;60.50
73121;DHT22;61307;49.628;-1.624;2023-08-06T23:58:41;19.10;60.60
